sensor_id;sensor_type;location;lat;lon;timestamp;temperature;humidity
41304;DHT22;51002;51.462;7.218;2023-05-10T00:02:18;14.20;91.80
41304;DHT22;51002;51.462;7.218;2023-05-10T00:04:46;14.30;91.80
41304;DHT22;51002;51.462;7.218;2023-05-10T00:07:12;14.40;91.70
41304;DHT22;51002;51.462;7.218;2023-05-10T00:09:37;14.40;91.70
41304;DHT22;51002;51.462;7.218;2023-05-10T00:12:05;14.20;91.70
41304;DHT22;51002;51.462;7.218;2023-05-10T00:14:33;14.30;91.80
41304;DHT22;51002;51.462;7.218;2023-05-10T00:17:01;14.20;91.70
41304;DHT22;51002;51.462;7.218;2023-05-10T00:19:26;14.40;91.80
41304;DHT22;51002;51.462;7.218;2023-05-10T00:21:52;14.20;91.80
41304;DHT22;51002;51.462;7.218;2023-05-10T00:24:20;14.20;91.80
41304;DHT22;51002;51.462;7.218;2023-05-10T00:26:45;14.40;91.80
41304;DHT22;51002;51.462;7.218;2023-05-10T00:29:11;14.10;91.80
41304;DHT22;51002;51.462;7.218;2023-05-10T00:31:36;14.20;91.80
41304;DHT22;51002;51.462;7.218;2023-05-10T00:34:04;14.20;91.80
41304;DHT22;51002;51.462;7.218;2023-05-10T00:36:34;14.20;91.80
41304;DHT22;51002;51.462;7.218;2023-05-10T00:39:00;14.20;91.70
41304;DHT22;51002;51.462;7.218;2023-05-10T00:41:25;14.10;91.80
41304;DHT22;51002;51.462;7.218;2023-05-10T00:43:51;14.10;91.80
41304;DHT22;51002;51.462;7.218;2023-05-10T00:46:18;14.30;91.80
41304;DHT22;51002;51.462;7.218;2023-05-10T00:48:44;14.30;91.80
41304;DHT22;51002;51.462;7.218;2023-05-10T00:51:09;14.20;91.80
41304;DHT22;51002;51.462;7.218;2023-05-10T00:53:35;14.20;91.80
41304;DHT22;51002;51.462;7.218;2023-05-10T00:56:03;14.30;91.80
41304;DHT22;51002;51.462;7.218;2023-05-10T00:58:28;14.20;91.80
41304;DHT22;51002;51.462;7.218;2023-05-10T01:00:56;14.20;91.80
41304;DHT22;51002;51.462;7.218;2023-05-10T01:03:22;14.30;91.80
41304;DHT22;51002;51.462;7.218;2023-05-10T01:05:47;14.30;91.80
41304;DHT22;51002;51.462;7.218;2023-05-10T01:14:21;14.20;91.80
41304;DHT22;51002;51.462;7.218;2023-05-10T01:16:47;14.20;91.80
41304;DHT22;51002;51.462;7.218;2023-05-10T01:19:23;14.00;91.80
41304;DHT22;51002;51.462;7.218;2023-05-10T01:24:39;13.90;91.70
41304;DHT22;51002;51.462;7.218;2023-05-10T01:32:21;14.10;91.80
41304;DHT22;51002;51.462;7.218;2023-05-10T01:34:54;14.10;91.80
41304;DHT22;51002;51.462;7.218;2023-05-10T01:37:25;14.20;91.80
41304;DHT22;51002;51.462;7.218;2023-05-10T01:40:14;14.00;91.80
41304;DHT22;51002;51.462;7.218;2023-05-10T01:42:47;14.00;91.80
41304;DHT22;51002;51.462;7.218;2023-05-10T01:45:18;14.00;91.80
41304;DHT22;51002;51.462;7.218;2023-05-10T01:47:50;14.00;91.80
41304;DHT22;51002;51.462;7.218;2023-05-10T01:50:19;14.10;91.80
41304;DHT22;51002;51.462;7.218;2023-05-10T01:52:50;14.00;91.80
41304;DHT22;51002;51.462;7.218;2023-05-10T01:55:16;14.00;91.80
41304;DHT22;51002;51.462;7.218;2023-05-10T01:57:43;13.70;91.80
41304;DHT22;51002;51.462;7.218;2023-05-10T02:00:10;13.90;91.80
41304;DHT22;51002;51.462;7.218;2023-05-10T02:02:39;13.90;91.80
41304;DHT22;51002;51.462;7.218;2023-05-10T02:05:05;14.00;91.80
41304;DHT22;51002;51.462;7.218;2023-05-10T02:07:32;14.00;91.80
41304;DHT22;51002;51.462;7.218;2023-05-10T02:09:59;13.90;91.80
41304;DHT22;51002;51.462;7.218;2023-05-10T02:12:25;13.90;91.80
41304;DHT22;51002;51.462;7.218;2023-05-10T02:14:52;14.10;91.80
41304;DHT22;51002;51.462;7.218;2023-05-10T02:17:19;13.80;91.80
41304;DHT22;51002;51.462;7.218;2023-05-10T02:19:45;13.90;91.80
41304;DHT22;51002;51.462;7.218;2023-05-10T02:22:12;13.80;91.80
41304;DHT22;51002;51.462;7.218;2023-05-10T02:24:38;13.80;91.80
41304;DHT22;51002;51.462;7.218;2023-05-10T02:27:03;13.90;91.80
41304;DHT22;51002;51.462;7.218;2023-05-10T02:29:29;13.60;91.80
41304;DHT22;51002;51.462;7.218;2023-05-10T02:31:56;13.80;91.90
41304;DHT22;51002;51.462;7.218;2023-05-10T02:34:22;13.80;91.90
41304;DHT22;51002;51.462;7.218;2023-05-10T02:36:48;13.90;91.90
41304;DHT22;51002;51.462;7.218;2023-05-10T02:39:17;13.90;91.90
41304;DHT22;51002;51.462;7.218;2023-05-10T02:41:46;13.80;91.90
41304;DHT22;51002;51.462;7.218;2023-05-10T02:44:14;13.90;91.90
41304;DHT22;51002;51.462;7.218;2023-05-10T02:46:41;13.80;91.90
41304;DHT22;51002;51.462;7.218;2023-05-10T02:49:06;13.80;91.90
41304;DHT22;51002;51.462;7.218;2023-05-10T02:51:32;13.80;91.90
41304;DHT22;51002;51.462;7.218;2023-05-10T02:54:10;13.80;91.90
41304;DHT22;51002;51.462;7.218;2023-05-10T02:56:39;13.40;91.90
41304;DHT22;51002;51.462;7.218;2023-05-10T02:59:06;13.50;91.90
41304;DHT22;51002;51.462;7.218;2023-05-10T03:01:31;13.70;91.90
41304;DHT22;51002;51.462;7.218;2023-05-10T03:03:57;13.70;91.90
41304;DHT22;51002;51.462;7.218;2023-05-10T03:06:22;13.80;91.90
41304;DHT22;51002;51.462;7.218;2023-05-10T03:08:48;13.90;91.90
41304;DHT22;51002;51.462;7.218;2023-05-10T03:16:19;13.80;91.90
41304;DHT22;51002;51.462;7.218;2023-05-10T03:21:16;13.80;91.90
41304;DHT22;51002;51.462;7.218;2023-05-10T03:23:43;13.80;91.90
41304;DHT22;51002;51.462;7.218;2023-05-10T03:26:09;13.80;91.90
41304;DHT22;51002;51.462;7.218;2023-05-10T03:28:39;13.80;91.90
41304;DHT22;51002;51.462;7.218;2023-05-10T03:31:04;13.80;91.90
41304;DHT22;51002;51.462;7.218;2023-05-10T03:33:33;13.80;91.90
41304;DHT22;51002;51.462;7.218;2023-05-10T03:35:58;13.80;91.90
41304;DHT22;51002;51.462;7.218;2023-05-10T03:38:24;13.90;91.90
41304;DHT22;51002;51.462;7.218;2023-05-10T03:40:50;13.80;91.90
41304;DHT22;51002;51.462;7.218;2023-05-10T03:43:15;13.80;91.90
41304;DHT22;51002;51.462;7.218;2023-05-10T03:45:41;13.90;91.90
41304;DHT22;51002;51.462;7.218;2023-05-10T03:48:06;13.80;91.90
41304;DHT22;51002;51.462;7.218;2023-05-10T03:50:31;13.80;91.90
41304;DHT22;51002;51.462;7.218;2023-05-10T03:52:59;13.80;91.90
41304;DHT22;51002;51.462;7.218;2023-05-10T03:55:25;13.80;91.90
41304;DHT22;51002;51.462;7.218;2023-05-10T03:57:50;14.00;91.90
41304;DHT22;51002;51.462;7.218;2023-05-10T04:00:16;13.90;91.90
41304;DHT22;51002;51.462;7.218;2023-05-10T04:02:44;13.80;91.90
41304;DHT22;51002;51.462;7.218;2023-05-10T04:05:12;13.80;91.90
41304;DHT22;51002;51.462;7.218;2023-05-10T04:07:40;13.80;91.90
41304;DHT22;51002;51.462;7.218;2023-05-10T04:10:05;13.90;91.90
41304;DHT22;51002;51.462;7.218;2023-05-10T04:12:31;13.90;92.00
41304;DHT22;51002;51.462;7.218;2023-05-10T04:14:57;13.90;91.90
41304;DHT22;51002;51.462;7.218;2023-05-10T04:17:22;13.90;92.00
41304;DHT22;51002;51.462;7.218;2023-05-10T04:19:50;13.90;92.00
41304;DHT22;51002;51.462;7.218;2023-05-10T04:22:18;13.70;91.90
41304;DHT22;51002;51.462;7.218;2023-05-10T04:24:43;13.80;91.90
41304;DHT22;51002;51.462;7.218;2023-05-10T04:27:09;13.80;92.00
41304;DHT22;51002;51.462;7.218;2023-05-10T04:29:35;13.90;92.00
41304;DHT22;51002;51.462;7.218;2023-05-10T04:32:00;13.90;92.00
41304;DHT22;51002;51.462;7.218;2023-05-10T04:34:25;13.80;91.90
41304;DHT22;51002;51.462;7.218;2023-05-10T04:36:51;13.70;92.00
41304;DHT22;51002;51.462;7.218;2023-05-10T04:39:16;13.80;92.00
41304;DHT22;51002;51.462;7.218;2023-05-10T04:41:42;13.90;92.00
41304;DHT22;51002;51.462;7.218;2023-05-10T04:44:10;13.80;92.00
41304;DHT22;51002;51.462;7.218;2023-05-10T04:46:35;13.80;92.00
41304;DHT22;51002;51.462;7.218;2023-05-10T04:49:01;13.80;92.00
41304;DHT22;51002;51.462;7.218;2023-05-10T04:51:26;13.80;92.00
41304;DHT22;51002;51.462;7.218;2023-05-10T04:53:52;13.80;92.00
41304;DHT22;51002;51.462;7.218;2023-05-10T04:56:17;13.90;92.00
41304;DHT22;51002;51.462;7.218;2023-05-10T04:58:43;13.90;92.00
41304;DHT22;51002;51.462;7.218;2023-05-10T05:03:42;13.90;92.00
41304;DHT22;51002;51.462;7.218;2023-05-10T05:06:10;13.90;92.00
41304;DHT22;51002;51.462;7.218;2023-05-10T05:08:35;13.90;92.00
41304;DHT22;51002;51.462;7.218;2023-05-10T05:12:53;13.90;92.00
41304;DHT22;51002;51.462;7.218;2023-05-10T05:15:18;13.70;92.00
41304;DHT22;51002;51.462;7.218;2023-05-10T05:17:46;13.70;92.00
41304;DHT22;51002;51.462;7.218;2023-05-10T05:20:16;13.90;92.00
41304;DHT22;51002;51.462;7.218;2023-05-10T05:22:42;13.90;92.00
41304;DHT22;51002;51.462;7.218;2023-05-10T05:25:07;13.90;92.00
41304;DHT22;51002;51.462;7.218;2023-05-10T05:27:33;14.00;92.00
41304;DHT22;51002;51.462;7.218;2023-05-10T05:29:59;14.00;92.00
41304;DHT22;51002;51.462;7.218;2023-05-10T05:32:24;14.00;92.00
41304;DHT22;51002;51.462;7.218;2023-05-10T05:34:50;13.90;92.00
41304;DHT22;51002;51.462;7.218;2023-05-10T05:37:19;14.00;92.00
41304;DHT22;51002;51.462;7.218;2023-05-10T05:39:46;14.00;92.00
41304;DHT22;51002;51.462;7.218;2023-05-10T05:42:12;14.00;92.00
41304;DHT22;51002;51.462;7.218;2023-05-10T05:44:38;14.10;92.00
41304;DHT22;51002;51.462;7.218;2023-05-10T05:47:04;14.00;92.00
41304;DHT22;51002;51.462;7.218;2023-05-10T05:49:30;14.00;92.00
41304;DHT22;51002;51.462;7.218;2023-05-10T05:51:59;14.00;92.00
41304;DHT22;51002;51.462;7.218;2023-05-10T05:54:24;14.00;92.00
41304;DHT22;51002;51.462;7.218;2023-05-10T05:56:50;14.00;92.00
41304;DHT22;51002;51.462;7.218;2023-05-10T05:59:15;13.90;92.00
41304;DHT22;51002;51.462;7.218;2023-05-10T06:01:43;13.90;92.00
41304;DHT22;51002;51.462;7.218;2023-05-10T06:04:08;13.90;92.10
41304;DHT22;51002;51.462;7.218;2023-05-10T06:06:34;14.20;92.10
41304;DHT22;51002;51.462;7.218;2023-05-10T06:08:59;14.10;92.10
41304;DHT22;51002;51.462;7.218;2023-05-10T06:11:25;14.00;92.10
41304;DHT22;51002;51.462;7.218;2023-05-10T06:13:51;14.00;92.10
41304;DHT22;51002;51.462;7.218;2023-05-10T06:16:16;14.20;92.10
41304;DHT22;51002;51.462;7.218;2023-05-10T06:18:44;14.10;92.10
41304;DHT22;51002;51.462;7.218;2023-05-10T06:21:10;13.90;92.10
41304;DHT22;51002;51.462;7.218;2023-05-10T06:23:35;14.10;92.10
41304;DHT22;51002;51.462;7.218;2023-05-10T06:26:01;14.30;92.10
41304;DHT22;51002;51.462;7.218;2023-05-10T06:28:27;14.30;92.10
41304;DHT22;51002;51.462;7.218;2023-05-10T06:30:56;14.20;92.10
41304;DHT22;51002;51.462;7.218;2023-05-10T06:33:24;14.30;92.10
41304;DHT22;51002;51.462;7.218;2023-05-10T06:35:51;14.40;92.10
41304;DHT22;51002;51.462;7.218;2023-05-10T06:38:17;14.50;92.10
41304;DHT22;51002;51.462;7.218;2023-05-10T06:40:43;14.40;92.10
41304;DHT22;51002;51.462;7.218;2023-05-10T06:43:09;14.60;92.10
41304;DHT22;51002;51.462;7.218;2023-05-10T06:45:37;14.50;92.20
41304;DHT22;51002;51.462;7.218;2023-05-10T06:48:02;14.80;92.20
41304;DHT22;51002;51.462;7.218;2023-05-10T06:50:28;14.80;92.20
41304;DHT22;51002;51.462;7.218;2023-05-10T06:52:53;14.80;92.20
41304;DHT22;51002;51.462;7.218;2023-05-10T06:55:19;14.70;92.20
41304;DHT22;51002;51.462;7.218;2023-05-10T06:57:44;14.70;92.20
41304;DHT22;51002;51.462;7.218;2023-05-10T07:00:12;14.70;92.20
41304;DHT22;51002;51.462;7.218;2023-05-10T07:02:41;14.80;92.20
41304;DHT22;51002;51.462;7.218;2023-05-10T07:05:07;14.70;92.20
41304;DHT22;51002;51.462;7.218;2023-05-10T07:07:33;14.70;92.20
41304;DHT22;51002;51.462;7.218;2023-05-10T07:09:58;15.00;92.20
41304;DHT22;51002;51.462;7.218;2023-05-10T07:12:24;15.00;92.20
41304;DHT22;51002;51.462;7.218;2023-05-10T07:14:49;15.00;92.20
41304;DHT22;51002;51.462;7.218;2023-05-10T07:17:15;15.00;92.20
41304;DHT22;51002;51.462;7.218;2023-05-10T07:19:43;14.80;92.20
41304;DHT22;51002;51.462;7.218;2023-05-10T07:22:08;14.90;92.20
41304;DHT22;51002;51.462;7.218;2023-05-10T07:24:34;15.10;92.20
41304;DHT22;51002;51.462;7.218;2023-05-10T07:26:59;15.20;92.20
41304;DHT22;51002;51.462;7.218;2023-05-10T07:29:25;15.20;92.20
41304;DHT22;51002;51.462;7.218;2023-05-10T07:31:53;15.00;92.20
41304;DHT22;51002;51.462;7.218;2023-05-10T07:34:19;15.10;92.20
41304;DHT22;51002;51.462;7.218;2023-05-10T07:36:45;15.30;92.20
41304;DHT22;51002;51.462;7.218;2023-05-10T07:39:10;15.20;92.20
41304;DHT22;51002;51.462;7.218;2023-05-10T07:41:36;15.40;92.20
41304;DHT22;51002;51.462;7.218;2023-05-10T07:44:04;15.20;92.20
41304;DHT22;51002;51.462;7.218;2023-05-10T07:46:29;15.20;92.20
41304;DHT22;51002;51.462;7.218;2023-05-10T07:48:55;15.30;92.20
41304;DHT22;51002;51.462;7.218;2023-05-10T07:51:20;15.40;92.20
41304;DHT22;51002;51.462;7.218;2023-05-10T07:53:46;15.60;92.20
41304;DHT22;51002;51.462;7.218;2023-05-10T07:56:22;15.70;92.20
41304;DHT22;51002;51.462;7.218;2023-05-10T07:58:48;15.20;92.20
41304;DHT22;51002;51.462;7.218;2023-05-10T08:01:15;15.50;92.20
41304;DHT22;51002;51.462;7.218;2023-05-10T08:03:41;15.40;92.20
41304;DHT22;51002;51.462;7.218;2023-05-10T08:06:06;15.70;92.20
41304;DHT22;51002;51.462;7.218;2023-05-10T08:08:32;15.60;92.20
41304;DHT22;51002;51.462;7.218;2023-05-10T08:10:57;15.70;92.20
41304;DHT22;51002;51.462;7.218;2023-05-10T08:13:23;15.80;92.20
41304;DHT22;51002;51.462;7.218;2023-05-10T08:15:50;15.70;92.20
41304;DHT22;51002;51.462;7.218;2023-05-10T08:18:18;15.80;92.20
41304;DHT22;51002;51.462;7.218;2023-05-10T08:20:44;15.70;92.20
41304;DHT22;51002;51.462;7.218;2023-05-10T08:23:09;15.70;92.20
41304;DHT22;51002;51.462;7.218;2023-05-10T08:25:37;15.70;92.20
41304;DHT22;51002;51.462;7.218;2023-05-10T08:28:02;15.70;92.20
41304;DHT22;51002;51.462;7.218;2023-05-10T08:30:28;15.80;92.20
41304;DHT22;51002;51.462;7.218;2023-05-10T08:32:53;15.70;92.20
41304;DHT22;51002;51.462;7.218;2023-05-10T08:35:19;15.80;92.20
41304;DHT22;51002;51.462;7.218;2023-05-10T08:37:45;16.00;92.20
41304;DHT22;51002;51.462;7.218;2023-05-10T08:40:13;16.00;92.20
41304;DHT22;51002;51.462;7.218;2023-05-10T08:42:39;16.00;92.20
41304;DHT22;51002;51.462;7.218;2023-05-10T08:45:08;16.00;92.20
41304;DHT22;51002;51.462;7.218;2023-05-10T08:47:37;15.70;92.10
41304;DHT22;51002;51.462;7.218;2023-05-10T08:50:04;15.80;92.10
41304;DHT22;51002;51.462;7.218;2023-05-10T08:52:30;15.90;92.10
41304;DHT22;51002;51.462;7.218;2023-05-10T08:54:58;15.70;92.10
41304;DHT22;51002;51.462;7.218;2023-05-10T08:57:23;15.70;92.10
41304;DHT22;51002;51.462;7.218;2023-05-10T08:59:49;16.30;92.10
41304;DHT22;51002;51.462;7.218;2023-05-10T09:02:14;16.00;92.00
41304;DHT22;51002;51.462;7.218;2023-05-10T09:04:40;16.50;92.10
41304;DHT22;51002;51.462;7.218;2023-05-10T09:07:06;16.40;92.00
41304;DHT22;51002;51.462;7.218;2023-05-10T09:09:32;16.20;92.00
41304;DHT22;51002;51.462;7.218;2023-05-10T09:12:00;16.20;92.00
41304;DHT22;51002;51.462;7.218;2023-05-10T09:14:26;16.20;91.90
41304;DHT22;51002;51.462;7.218;2023-05-10T09:16:51;16.00;91.80
41304;DHT22;51002;51.462;7.218;2023-05-10T09:19:19;16.30;91.80
41304;DHT22;51002;51.462;7.218;2023-05-10T09:21:44;16.30;91.70
41304;DHT22;51002;51.462;7.218;2023-05-10T09:24:12;16.50;91.60
41304;DHT22;51002;51.462;7.218;2023-05-10T09:26:47;16.50;91.60
41304;DHT22;51002;51.462;7.218;2023-05-10T09:29:15;16.40;91.40
41304;DHT22;51002;51.462;7.218;2023-05-10T09:31:44;16.30;91.20
41304;DHT22;51002;51.462;7.218;2023-05-10T09:34:11;16.50;91.10
41304;DHT22;51002;51.462;7.218;2023-05-10T09:36:52;16.40;90.70
41304;DHT22;51002;51.462;7.218;2023-05-10T09:39:18;16.70;90.70
41304;DHT22;51002;51.462;7.218;2023-05-10T09:41:44;16.60;90.40
41304;DHT22;51002;51.462;7.218;2023-05-10T09:44:11;16.70;90.20
41304;DHT22;51002;51.462;7.218;2023-05-10T09:46:40;16.40;90.00
41304;DHT22;51002;51.462;7.218;2023-05-10T09:49:08;16.50;90.00
41304;DHT22;51002;51.462;7.218;2023-05-10T09:51:34;16.40;90.60
41304;DHT22;51002;51.462;7.218;2023-05-10T09:54:10;16.70;90.20
41304;DHT22;51002;51.462;7.218;2023-05-10T09:56:36;16.90;90.20
41304;DHT22;51002;51.462;7.218;2023-05-10T09:59:05;16.90;90.20
41304;DHT22;51002;51.462;7.218;2023-05-10T10:01:31;16.90;90.20
41304;DHT22;51002;51.462;7.218;2023-05-10T10:04:01;16.80;90.30
41304;DHT22;51002;51.462;7.218;2023-05-10T10:06:27;16.80;90.60
41304;DHT22;51002;51.462;7.218;2023-05-10T10:08:53;17.20;90.70
41304;DHT22;51002;51.462;7.218;2023-05-10T10:11:19;17.40;90.70
41304;DHT22;51002;51.462;7.218;2023-05-10T10:13:47;17.50;90.80
41304;DHT22;51002;51.462;7.218;2023-05-10T10:16:13;17.40;91.00
41304;DHT22;51002;51.462;7.218;2023-05-10T10:18:38;17.20;90.60
41304;DHT22;51002;51.462;7.218;2023-05-10T10:21:05;17.20;90.60
41304;DHT22;51002;51.462;7.218;2023-05-10T10:23:32;17.30;90.10
41304;DHT22;51002;51.462;7.218;2023-05-10T10:26:02;17.30;87.40
41304;DHT22;51002;51.462;7.218;2023-05-10T10:36:17;17.90;79.40
41304;DHT22;51002;51.462;7.218;2023-05-10T10:41:11;18.00;78.50
41304;DHT22;51002;51.462;7.218;2023-05-10T10:44:22;18.00;78.20
41304;DHT22;51002;51.462;7.218;2023-05-10T10:46:58;18.40;80.50
41304;DHT22;51002;51.462;7.218;2023-05-10T10:49:22;18.40;75.50
41304;DHT22;51002;51.462;7.218;2023-05-10T10:54:32;18.70;81.10
41304;DHT22;51002;51.462;7.218;2023-05-10T10:57:11;18.30;76.00
41304;DHT22;51002;51.462;7.218;2023-05-10T10:59:41;18.50;77.60
41304;DHT22;51002;51.462;7.218;2023-05-10T11:02:07;18.30;78.00
41304;DHT22;51002;51.462;7.218;2023-05-10T11:04:41;18.00;76.00
41304;DHT22;51002;51.462;7.218;2023-05-10T11:07:16;17.90;78.00
41304;DHT22;51002;51.462;7.218;2023-05-10T11:09:43;17.90;78.30
41304;DHT22;51002;51.462;7.218;2023-05-10T11:12:08;17.90;79.20
41304;DHT22;51002;51.462;7.218;2023-05-10T11:14:34;17.90;77.40
41304;DHT22;51002;51.462;7.218;2023-05-10T11:16:59;18.10;80.90
41304;DHT22;51002;51.462;7.218;2023-05-10T11:19:29;17.90;74.70
41304;DHT22;51002;51.462;7.218;2023-05-10T11:24:29;17.70;77.20
41304;DHT22;51002;51.462;7.218;2023-05-10T11:26:55;17.70;78.60
41304;DHT22;51002;51.462;7.218;2023-05-10T11:29:24;17.50;75.10
41304;DHT22;51002;51.462;7.218;2023-05-10T11:31:51;17.90;81.10
41304;DHT22;51002;51.462;7.218;2023-05-10T11:34:26;17.90;75.80
41304;DHT22;51002;51.462;7.218;2023-05-10T11:36:53;18.10;80.80
41304;DHT22;51002;51.462;7.218;2023-05-10T11:39:21;18.20;76.80
41304;DHT22;51002;51.462;7.218;2023-05-10T11:41:50;18.30;80.90
41304;DHT22;51002;51.462;7.218;2023-05-10T11:44:16;18.20;77.40
41304;DHT22;51002;51.462;7.218;2023-05-10T11:46:41;18.30;77.50
41304;DHT22;51002;51.462;7.218;2023-05-10T11:49:07;18.10;76.20
41304;DHT22;51002;51.462;7.218;2023-05-10T11:51:36;18.00;75.50
41304;DHT22;51002;51.462;7.218;2023-05-10T11:54:04;18.20;74.80
41304;DHT22;51002;51.462;7.218;2023-05-10T11:56:31;17.90;77.00
41304;DHT22;51002;51.462;7.218;2023-05-10T11:58:57;18.20;78.90
41304;DHT22;51002;51.462;7.218;2023-05-10T12:01:26;18.00;79.20
41304;DHT22;51002;51.462;7.218;2023-05-10T12:03:52;17.90;76.10
41304;DHT22;51002;51.462;7.218;2023-05-10T12:06:18;17.90;79.40
41304;DHT22;51002;51.462;7.218;2023-05-10T12:08:45;17.80;74.90
41304;DHT22;51002;51.462;7.218;2023-05-10T12:11:12;17.90;76.80
41304;DHT22;51002;51.462;7.218;2023-05-10T12:13:41;18.10;81.00
41304;DHT22;51002;51.462;7.218;2023-05-10T12:18:39;17.70;76.30
41304;DHT22;51002;51.462;7.218;2023-05-10T12:21:05;17.80;75.30
41304;DHT22;51002;51.462;7.218;2023-05-10T12:23:30;17.70;73.70
41304;DHT22;51002;51.462;7.218;2023-05-10T12:26:01;17.90;75.80
41304;DHT22;51002;51.462;7.218;2023-05-10T12:28:29;18.20;79.30
41304;DHT22;51002;51.462;7.218;2023-05-10T12:30:55;18.30;79.40
41304;DHT22;51002;51.462;7.218;2023-05-10T12:33:20;18.30;76.30
41304;DHT22;51002;51.462;7.218;2023-05-10T12:35:49;18.30;74.80
41304;DHT22;51002;51.462;7.218;2023-05-10T12:40:50;18.40;74.50
41304;DHT22;51002;51.462;7.218;2023-05-10T12:43:16;18.60;76.60
41304;DHT22;51002;51.462;7.218;2023-05-10T12:45:41;18.50;74.40
41304;DHT22;51002;51.462;7.218;2023-05-10T12:48:07;18.60;73.40
41304;DHT22;51002;51.462;7.218;2023-05-10T12:50:32;18.60;75.10
41304;DHT22;51002;51.462;7.218;2023-05-10T12:53:00;18.60;72.60
41304;DHT22;51002;51.462;7.218;2023-05-10T12:55:25;18.60;73.50
41304;DHT22;51002;51.462;7.218;2023-05-10T12:57:53;18.60;75.10
41304;DHT22;51002;51.462;7.218;2023-05-10T13:00:19;18.70;72.60
41304;DHT22;51002;51.462;7.218;2023-05-10T13:02:44;18.60;73.00
41304;DHT22;51002;51.462;7.218;2023-05-10T13:05:14;18.80;76.00
41304;DHT22;51002;51.462;7.218;2023-05-10T13:07:40;18.80;75.20
41304;DHT22;51002;51.462;7.218;2023-05-10T13:10:08;18.80;76.20
41304;DHT22;51002;51.462;7.218;2023-05-10T13:12:34;18.60;71.70
41304;DHT22;51002;51.462;7.218;2023-05-10T13:15:02;18.50;71.70
41304;DHT22;51002;51.462;7.218;2023-05-10T13:17:28;18.60;71.80
41304;DHT22;51002;51.462;7.218;2023-05-10T13:19:53;18.70;73.00
41304;DHT22;51002;51.462;7.218;2023-05-10T13:22:19;18.10;69.90
41304;DHT22;51002;51.462;7.218;2023-05-10T13:24:45;18.20;75.10
41304;DHT22;51002;51.462;7.218;2023-05-10T13:27:10;18.20;71.00
41304;DHT22;51002;51.462;7.218;2023-05-10T13:29:36;18.50;68.80
41304;DHT22;51002;51.462;7.218;2023-05-10T13:32:01;18.70;75.30
41304;DHT22;51002;51.462;7.218;2023-05-10T13:34:27;18.60;70.10
41304;DHT22;51002;51.462;7.218;2023-05-10T13:36:52;18.50;69.10
41304;DHT22;51002;51.462;7.218;2023-05-10T13:39:19;18.40;69.40
41304;DHT22;51002;51.462;7.218;2023-05-10T13:41:45;18.60;71.90
41304;DHT22;51002;51.462;7.218;2023-05-10T13:44:11;18.40;69.90
41304;DHT22;51002;51.462;7.218;2023-05-10T13:46:37;18.50;73.40
41304;DHT22;51002;51.462;7.218;2023-05-10T13:49:03;18.40;73.10
41304;DHT22;51002;51.462;7.218;2023-05-10T13:51:29;18.50;76.00
41304;DHT22;51002;51.462;7.218;2023-05-10T13:53:54;18.30;73.80
41304;DHT22;51002;51.462;7.218;2023-05-10T13:56:20;18.30;71.80
41304;DHT22;51002;51.462;7.218;2023-05-10T13:58:45;18.20;69.40
41304;DHT22;51002;51.462;7.218;2023-05-10T14:01:13;18.50;72.00
41304;DHT22;51002;51.462;7.218;2023-05-10T14:03:41;18.40;67.50
41304;DHT22;51002;51.462;7.218;2023-05-10T14:06:11;18.50;67.30
41304;DHT22;51002;51.462;7.218;2023-05-10T14:08:36;18.60;70.20
41304;DHT22;51002;51.462;7.218;2023-05-10T14:11:02;18.60;72.30
41304;DHT22;51002;51.462;7.218;2023-05-10T14:13:28;18.50;67.30
41304;DHT22;51002;51.462;7.218;2023-05-10T14:15:53;18.30;66.20
41304;DHT22;51002;51.462;7.218;2023-05-10T14:18:20;18.30;66.80
41304;DHT22;51002;51.462;7.218;2023-05-10T14:20:45;18.30;68.40
41304;DHT22;51002;51.462;7.218;2023-05-10T14:23:11;18.30;74.50
41304;DHT22;51002;51.462;7.218;2023-05-10T14:25:36;18.30;74.20
41304;DHT22;51002;51.462;7.218;2023-05-10T14:28:03;18.30;67.70
41304;DHT22;51002;51.462;7.218;2023-05-10T14:30:28;18.20;69.00
41304;DHT22;51002;51.462;7.218;2023-05-10T14:32:54;18.20;68.90
41304;DHT22;51002;51.462;7.218;2023-05-10T14:35:19;18.30;73.60
41304;DHT22;51002;51.462;7.218;2023-05-10T14:37:45;18.30;71.20
41304;DHT22;51002;51.462;7.218;2023-05-10T14:40:11;18.30;73.10
41304;DHT22;51002;51.462;7.218;2023-05-10T14:42:40;18.30;69.50
41304;DHT22;51002;51.462;7.218;2023-05-10T14:45:07;18.30;67.80
41304;DHT22;51002;51.462;7.218;2023-05-10T14:47:33;18.30;67.40
41304;DHT22;51002;51.462;7.218;2023-05-10T14:49:59;18.50;69.60
41304;DHT22;51002;51.462;7.218;2023-05-10T14:52:25;18.60;73.40
41304;DHT22;51002;51.462;7.218;2023-05-10T14:54:51;18.40;66.80
41304;DHT22;51002;51.462;7.218;2023-05-10T14:57:16;18.30;71.70
41304;DHT22;51002;51.462;7.218;2023-05-10T14:59:44;18.40;72.60
41304;DHT22;51002;51.462;7.218;2023-05-10T15:02:09;18.20;66.30
41304;DHT22;51002;51.462;7.218;2023-05-10T15:04:35;18.30;72.30
41304;DHT22;51002;51.462;7.218;2023-05-10T15:07:03;18.30;67.60
41304;DHT22;51002;51.462;7.218;2023-05-10T15:09:29;18.30;73.00
41304;DHT22;51002;51.462;7.218;2023-05-10T15:11:55;18.30;66.70
41304;DHT22;51002;51.462;7.218;2023-05-10T15:14:20;18.30;68.50
41304;DHT22;51002;51.462;7.218;2023-05-10T15:16:46;18.30;65.50
41304;DHT22;51002;51.462;7.218;2023-05-10T15:19:13;18.40;70.80
41304;DHT22;51002;51.462;7.218;2023-05-10T15:21:39;18.30;66.50
41304;DHT22;51002;51.462;7.218;2023-05-10T15:24:09;18.40;69.30
41304;DHT22;51002;51.462;7.218;2023-05-10T15:26:37;18.30;65.00
41304;DHT22;51002;51.462;7.218;2023-05-10T15:29:03;18.30;73.20
41304;DHT22;51002;51.462;7.218;2023-05-10T15:31:28;18.30;74.60
41304;DHT22;51002;51.462;7.218;2023-05-10T15:33:57;18.30;70.00
41304;DHT22;51002;51.462;7.218;2023-05-10T15:36:22;18.40;74.70
41304;DHT22;51002;51.462;7.218;2023-05-10T15:38:48;18.30;74.70
41304;DHT22;51002;51.462;7.218;2023-05-10T15:41:13;18.20;71.90
41304;DHT22;51002;51.462;7.218;2023-05-10T15:43:38;18.20;74.20
41304;DHT22;51002;51.462;7.218;2023-05-10T15:46:04;18.30;70.30
41304;DHT22;51002;51.462;7.218;2023-05-10T15:48:31;18.30;72.50
41304;DHT22;51002;51.462;7.218;2023-05-10T15:50:59;18.30;74.40
41304;DHT22;51002;51.462;7.218;2023-05-10T15:53:29;18.30;78.40
41304;DHT22;51002;51.462;7.218;2023-05-10T15:55:55;18.30;73.40
41304;DHT22;51002;51.462;7.218;2023-05-10T15:58:25;18.30;72.10
41304;DHT22;51002;51.462;7.218;2023-05-10T16:00:50;18.30;78.30
41304;DHT22;51002;51.462;7.218;2023-05-10T16:03:16;18.30;71.90
41304;DHT22;51002;51.462;7.218;2023-05-10T16:05:41;18.20;73.90
41304;DHT22;51002;51.462;7.218;2023-05-10T16:08:07;18.10;69.50
41304;DHT22;51002;51.462;7.218;2023-05-10T16:10:35;18.10;72.70
41304;DHT22;51002;51.462;7.218;2023-05-10T16:13:01;18.10;69.40
41304;DHT22;51002;51.462;7.218;2023-05-10T16:15:28;18.10;70.70